Time;durP1;ratioP1;P1;durP2;ratioP2;P2;SDS_P1;SDS_P2;PMS_P1;PMS_P2;Temp;Humidity;BMP_temperature;BMP_pressure;BME280_temperature;BME280_humidity;BME280_pressure;Samples;Min_cycle;Max_cycle;Signal;HPM_P1;HPM_P2
2023/02/05 00:02:16;;;;;;;9.80;6.25;;;21.60;37.70;;;;;;5055215;28;20024;-49
2023/02/05 00:04:41;;;;;;;12.60;6.70;;;21.60;37.80;;;;;;5066725;28;20020;-51
2023/02/05 00:07:08;;;;;;;10.93;6.90;;;21.60;37.80;;;;;;5060719;28;20028;-48
2023/02/05 00:09:35;;;;;;;12.77;6.95;;;21.60;37.80;;;;;;5058729;28;20074;-49
2023/02/05 00:12:01;;;;;;;11.00;6.10;;;21.60;37.80;;;;;;5058297;28;20025;-52
2023/02/05 00:14:27;;;;;;;11.85;6.53;;;21.60;37.80;;;;;;5061120;28;20116;-48
2023/02/05 00:16:53;;;;;;;11.07;6.20;;;21.60;37.80;;;;;;5059859;28;20480;-52
2023/02/05 00:19:19;;;;;;;11.85;6.75;;;21.60;37.80;;;;;;5060962;28;20119;-52
2023/02/05 00:21:45;;;;;;;11.00;6.57;;;21.60;37.80;;;;;;5064785;28;20439;-52
2023/02/05 00:24:11;;;;;;;10.05;6.43;;;21.60;37.90;;;;;;5056454;28;20040;-48
2023/02/05 00:26:37;;;;;;;12.13;6.22;;;21.60;37.90;;;;;;5061573;28;20016;-52
2023/02/05 00:29:04;;;;;;;10.35;6.05;;;21.60;37.90;;;;;;5059586;28;20498;-50
2023/02/05 00:31:30;;;;;;;9.85;5.97;;;21.50;37.90;;;;;;5060199;28;20028;-50
2023/02/05 00:33:56;;;;;;;11.73;6.18;;;21.50;37.90;;;;;;5057678;28;20025;-54
2023/02/05 00:36:23;;;;;;;12.15;6.07;;;21.50;37.90;;;;;;5061453;28;20040;-50
2023/02/05 00:38:49;;;;;;;11.48;5.88;;;21.60;37.90;;;;;;5064020;28;20033;-50
2023/02/05 00:41:16;;;;;;;9.10;5.57;;;21.50;37.90;;;;;;5059305;28;20519;-52
2023/02/05 00:43:42;;;;;;;9.82;5.53;;;21.50;37.90;;;;;;5057718;28;20029;-52
2023/02/05 00:46:09;;;;;;;10.93;5.82;;;21.50;38.00;;;;;;5055624;28;20036;-49
2023/02/05 00:48:36;;;;;;;10.15;5.13;;;21.50;38.00;;;;;;5036650;28;20032;-53
2023/02/05 00:51:02;;;;;;;12.20;5.93;;;21.50;38.00;;;;;;5060631;28;20025;-53
2023/02/05 00:53:28;;;;;;;10.38;5.55;;;21.50;38.10;;;;;;5060822;28;20413;-49
2023/02/05 00:55:54;;;;;;;8.93;5.97;;;21.50;38.10;;;;;;5056297;28;20444;-53
2023/02/05 00:58:20;;;;;;;6.93;4.68;;;21.50;38.10;;;;;;5060054;28;20086;-52
2023/02/05 01:00:46;;;;;;;11.23;5.88;;;21.50;38.10;;;;;;5044102;28;20048;-52
2023/02/05 01:03:13;;;;;;;10.07;5.53;;;21.50;38.10;;;;;;5054923;28;20036;-53
2023/02/05 01:05:40;;;;;;;12.45;6.32;;;21.40;38.10;;;;;;5060211;28;20383;-52
2023/02/05 01:08:07;;;;;;;11.10;5.70;;;21.50;38.20;;;;;;5039732;28;20036;-52
2023/02/05 01:10:34;;;;;;;9.43;5.78;;;21.50;38.20;;;;;;5042269;28;20021;-51
2023/02/05 01:12:59;;;;;;;10.10;5.80;;;21.40;38.20;;;;;;5041886;28;20128;-51
2023/02/05 01:15:25;;;;;;;11.57;6.10;;;21.40;38.20;;;;;;5060114;28;20156;-50
2023/02/05 01:17:51;;;;;;;12.50;6.07;;;21.40;38.20;;;;;;5059183;28;20051;-52
2023/02/05 01:20:19;;;;;;;9.90;5.40;;;21.40;38.20;;;;;;5061705;28;20068;-50
2023/02/05 01:22:45;;;;;;;12.55;6.55;;;21.40;38.30;;;;;;5066368;28;20052;-54
2023/02/05 01:25:10;;;;;;;11.55;6.03;;;21.40;38.30;;;;;;5064385;28;20025;-50
2023/02/05 01:27:37;;;;;;;11.02;5.60;;;21.40;38.30;;;;;;5066207;28;20433;-52
2023/02/05 01:30:04;;;;;;;11.88;6.32;;;21.40;38.40;;;;;;5041512;28;20029;-53
2023/02/05 01:32:30;;;;;;;13.35;6.32;;;21.40;38.40;;;;;;5060158;28;20049;-53
2023/02/05 01:34:56;;;;;;;10.65;5.88;;;21.40;38.40;;;;;;5057877;28;20035;-53
2023/02/05 01:37:22;;;;;;;10.50;6.60;;;21.40;38.40;;;;;;5062054;28;20103;-53
2023/02/05 01:39:48;;;;;;;9.48;5.57;;;21.40;38.50;;;;;;5063607;28;20072;-51
2023/02/05 01:42:24;;;;;;;10.88;5.93;;;21.30;38.40;;;;;;5033830;28;20028;-49
2023/02/05 01:45:20;;;;;;;11.82;6.53;;;21.40;38.50;;;;;;5063433;28;20082;-50
2023/02/05 01:48:01;;;;;;;8.82;5.68;;;21.40;38.50;;;;;;5060831;28;20062;-53
2023/02/05 01:50:29;;;;;;;11.00;5.85;;;21.30;38.60;;;;;;5065987;28;20025;-53
2023/02/05 01:52:58;;;;;;;10.10;5.88;;;21.30;38.60;;;;;;5061292;28;20046;-52
2023/02/05 01:55:25;;;;;;;11.88;5.85;;;21.30;38.60;;;;;;5060566;28;20036;-50
2023/02/05 01:57:52;;;;;;;10.55;6.13;;;21.30;38.70;;;;;;5058112;28;20510;-53
2023/02/05 02:00:21;;;;;;;8.68;5.28;;;21.30;38.70;;;;;;5061493;28;20040;-52
2023/02/05 02:02:47;;;;;;;9.20;5.60;;;21.30;38.70;;;;;;5063187;28;20115;-50
2023/02/05 02:05:16;;;;;;;11.43;5.97;;;21.30;38.80;;;;;;5064567;28;20412;-51
2023/02/05 02:07:42;;;;;;;11.43;5.97;;;21.30;38.80;;;;;;5038979;28;20120;-53
2023/02/05 02:10:10;;;;;;;9.48;5.85;;;21.30;38.80;;;;;;5059762;28;20535;-51
2023/02/05 02:12:38;;;;;;;10.18;5.57;;;21.30;38.90;;;;;;5065938;28;20463;-51
2023/02/05 02:15:13;;;;;;;8.73;5.90;;;21.20;38.80;;;;;;5036660;28;20472;-53
2023/02/05 02:17:42;;;;;;;9.50;5.72;;;21.20;38.80;;;;;;5038580;28;20083;-53
2023/02/05 02:20:18;;;;;;;10.13;5.40;;;21.20;38.90;;;;;;5043638;28;20041;-52
2023/02/05 02:23:07;;;;;;;9.57;5.80;;;21.20;38.90;;;;;;5039942;28;20037;-52
2023/02/05 02:25:59;;;;;;;9.88;5.95;;;21.20;38.90;;;;;;5040916;28;20033;-52
2023/02/05 02:28:45;;;;;;;9.73;6.03;;;21.20;38.90;;;;;;5040618;28;20035;-53
2023/02/05 02:31:43;;;;;;;7.35;5.45;;;21.20;38.90;;;;;;5041672;28;20037;-52
2023/02/05 02:34:39;;;;;;;10.50;6.18;;;21.20;39.00;;;;;;4994846;28;20033;-50
2023/02/05 02:37:13;;;;;;;10.80;6.60;;;21.20;39.00;;;;;;5042891;28;20135;-53
2023/02/05 02:39:41;;;;;;;;;;;21.20;39.00;;;;;;5044218;28;20045;-53
2023/02/05 02:42:12;;;;;;;9.35;5.90;;;21.20;39.10;;;;;;5044531;28;20328;-51
2023/02/05 02:44:51;;;;;;;7.28;5.95;;;21.20;39.10;;;;;;5035740;28;20033;-53
2023/02/05 02:47:27;;;;;;;11.02;6.40;;;21.20;39.20;;;;;;5040527;28;20112;-53
2023/02/05 02:50:01;;;;;;;7.70;5.65;;;21.20;39.20;;;;;;5037294;28;20029;-51
2023/02/05 02:52:33;;;;;;;9.90;6.05;;;21.20;39.20;;;;;;5045321;28;20108;-52
2023/02/05 02:55:04;;;;;;;7.43;5.55;;;21.20;39.30;;;;;;5039481;28;20456;-53
2023/02/05 02:57:34;;;;;;;9.13;5.97;;;21.20;39.30;;;;;;5038540;28;20115;-53
2023/02/05 03:00:01;;;;;;;9.90;5.90;;;21.20;39.30;;;;;;5038866;28;20025;-48
2023/02/05 03:02:32;;;;;;;9.00;6.05;;;21.20;39.30;;;;;;5037712;28;20086;-51
2023/02/05 03:05:03;;;;;;;8.05;6.00;;;21.20;39.30;;;;;;5034320;28;20426;-49
2023/02/05 03:07:36;;;;;;;7.85;5.57;;;21.10;39.30;;;;;;5038214;28;20041;-52
2023/02/05 03:10:29;;;;;;;8.27;5.78;;;21.10;39.30;;;;;;5040299;28;20021;-52
2023/02/05 03:12:55;;;;;;;7.10;5.47;;;21.20;39.40;;;;;;5015146;28;20094;-49
2023/02/05 03:15:21;;;;;;;7.60;5.20;;;21.10;39.30;;;;;;5038660;28;20476;-52
2023/02/05 03:17:51;;;;;;;8.50;6.18;;;21.10;39.30;;;;;;5042874;28;20108;-48
2023/02/05 03:20:57;;;;;;;7.50;5.78;;;21.10;39.30;;;;;;5038387;28;20350;-50
2023/02/05 03:23:25;;;;;;;7.40;5.57;;;21.10;39.30;;;;;;5036298;28;20017;-53
2023/02/05 03:25:51;;;;;;;7.53;5.35;;;21.10;39.30;;;;;;5043383;28;20072;-51
2023/02/05 03:28:22;;;;;;;7.55;5.05;;;21.10;39.30;;;;;;5033276;28;20041;-52
2023/02/05 03:31:13;;;;;;;8.23;5.20;;;21.10;39.40;;;;;;5038587;28;20056;-53
2023/02/05 03:33:51;;;;;;;7.70;4.90;;;21.10;39.30;;;;;;5035343;28;20040;-54
2023/02/05 03:36:45;;;;;;;6.93;4.95;;;21.10;39.30;;;;;;5038485;28;20086;-52
2023/02/05 03:39:57;;;;;;;8.38;5.47;;;21.10;39.30;;;;;;5043011;28;20045;-53
2023/02/05 03:42:57;;;;;;;7.72;5.13;;;21.10;39.30;;;;;;5022437;28;20041;-49
2023/02/05 03:45:52;;;;;;;6.88;4.70;;;21.10;39.40;;;;;;5032894;28;20525;-50
2023/02/05 03:48:32;;;;;;;7.30;4.65;;;21.00;39.30;;;;;;5008417;28;20052;-51
2023/02/05 03:51:08;;;;;;;8.05;4.75;;;21.00;39.30;;;;;;5038748;28;20037;-50
2023/02/05 03:53:41;;;;;;;6.80;4.80;;;21.00;39.30;;;;;;5040461;28;20052;-51
2023/02/05 03:56:34;;;;;;;6.68;4.57;;;21.00;39.30;;;;;;5039103;28;20034;-51
2023/02/05 03:59:03;;;;;;;6.80;4.35;;;21.00;39.30;;;;;;5033464;28;20029;-52
2023/02/05 04:01:29;;;;;;;6.75;4.47;;;21.00;39.30;;;;;;5036270;28;20064;-53
2023/02/05 04:03:55;;;;;;;6.25;4.50;;;21.00;39.30;;;;;;5039258;28;20033;-52
2023/02/05 04:06:22;;;;;;;6.60;4.35;;;21.00;39.20;;;;;;5038138;28;20404;-52
2023/02/05 04:08:50;;;;;;;5.90;4.60;;;21.00;39.20;;;;;;5036557;28;20103;-52
2023/02/05 04:11:16;;;;;;;4.88;4.35;;;21.00;39.20;;;;;;5040212;28;20496;-52
2023/02/05 04:13:44;;;;;;;6.18;4.60;;;21.00;39.20;;;;;;5039539;28;20045;-54
2023/02/05 04:16:11;;;;;;;5.32;3.95;;;21.00;39.20;;;;;;5040942;28;20025;-52
2023/02/05 04:18:37;;;;;;;5.82;3.92;;;21.00;39.20;;;;;;5037314;28;20043;-53
2023/02/05 04:21:03;;;;;;;6.05;4.10;;;21.00;39.20;;;;;;5037927;28;20365;-49
2023/02/05 04:23:30;;;;;;;5.13;4.13;;;21.00;39.20;;;;;;5037851;28;20026;-50
2023/02/05 04:25:56;;;;;;;6.00;4.25;;;21.00;39.10;;;;;;5037205;28;20091;-52
2023/02/05 04:28:30;;;;;;;;;;;21.00;39.10;;;;;;5041897;28;20048;-53
2023/02/05 04:30:56;;;;;;;5.10;3.80;;;21.00;39.20;;;;;;5036755;28;19913;-50
2023/02/05 04:33:23;;;;;;;6.97;3.80;;;21.00;39.10;;;;;;5038965;28;20032;-53
2023/02/05 04:35:49;;;;;;;5.82;3.85;;;21.00;39.10;;;;;;5040848;28;20041;-48
2023/02/05 04:38:15;;;;;;;5.75;3.72;;;21.00;39.10;;;;;;5039769;28;20028;-53
2023/02/05 04:40:41;;;;;;;4.60;3.67;;;20.90;39.00;;;;;;5035249;28;20033;-52
2023/02/05 04:43:06;;;;;;;5.07;3.60;;;20.90;39.00;;;;;;5042317;28;20029;-51
2023/02/05 04:45:32;;;;;;;5.38;4.07;;;21.00;39.10;;;;;;5040960;28;20376;-50
2023/02/05 04:47:59;;;;;;;5.90;4.07;;;20.90;39.00;;;;;;5040894;28;20033;-47
2023/02/05 04:50:26;;;;;;;4.72;3.55;;;20.90;39.00;;;;;;5039394;28;20036;-52
2023/02/05 04:52:51;;;;;;;4.95;3.60;;;20.90;39.00;;;;;;5043252;28;20120;-49
2023/02/05 04:55:17;;;;;;;4.45;3.42;;;20.90;39.00;;;;;;5045784;28;20171;-52
2023/02/05 04:57:43;;;;;;;5.80;3.40;;;20.90;39.00;;;;;;5040735;28;20026;-51
2023/02/05 05:00:10;;;;;;;5.40;3.42;;;20.90;38.90;;;;;;5034967;28;20449;-52
2023/02/05 05:02:35;;;;;;;4.05;3.10;;;20.90;38.90;;;;;;5043067;28;20047;-51
2023/02/05 05:05:01;;;;;;;5.15;3.70;;;20.90;38.90;;;;;;5040095;28;20449;-52
2023/02/05 05:07:29;;;;;;;4.18;3.15;;;20.90;38.90;;;;;;5037937;28;20445;-52
2023/02/05 05:09:55;;;;;;;4.93;3.70;;;20.90;39.00;;;;;;5038953;28;20471;-50
2023/02/05 05:12:21;;;;;;;5.32;3.20;;;20.90;39.00;;;;;;5039844;28;20116;-51
2023/02/05 05:14:47;;;;;;;4.43;3.22;;;20.90;39.00;;;;;;5058342;28;20044;-49
2023/02/05 05:17:13;;;;;;;4.95;3.72;;;20.90;39.00;;;;;;5059379;28;20911;-48
2023/02/05 05:19:39;;;;;;;4.18;3.28;;;20.90;39.00;;;;;;5041511;28;20037;-53
2023/02/05 05:22:05;;;;;;;4.18;3.35;;;20.90;39.00;;;;;;5043899;28;20032;-49
2023/02/05 05:24:31;;;;;;;5.00;3.15;;;20.90;39.00;;;;;;5058571;28;20024;-53
2023/02/05 05:26:58;;;;;;;4.32;3.30;;;20.90;39.00;;;;;;5057310;28;20021;-51
2023/02/05 05:29:24;;;;;;;4.60;3.10;;;20.90;39.00;;;;;;5056695;28;20115;-50
2023/02/05 05:31:53;;;;;;;4.85;3.53;;;20.90;39.10;;;;;;5055829;28;20120;-49
2023/02/05 05:34:19;;;;;;;4.32;3.28;;;20.90;39.10;;;;;;5060995;28;20021;-50
2023/02/05 05:36:46;;;;;;;4.13;3.20;;;20.80;39.00;;;;;;5058120;28;20029;-50
2023/02/05 05:44:43;;;;;;;3.55;2.90;;;20.80;39.20;;;;;;5060016;28;20021;-51
2023/02/05 05:47:09;;;;;;;4.95;3.10;;;20.80;39.20;;;;;;5059769;28;20029;-52
2023/02/05 05:49:35;;;;;;;4.70;2.90;;;20.80;39.20;;;;;;5060369;28;20025;-49
2023/02/05 05:52:01;;;;;;;4.60;2.92;;;20.80;39.20;;;;;;5055449;28;20033;-49
2023/02/05 05:54:27;;;;;;;4.22;2.67;;;20.80;39.20;;;;;;5058836;28;20052;-48
2023/02/05 05:56:52;;;;;;;3.55;2.65;;;20.80;39.20;;;;;;5062527;28;20079;-53
2023/02/05 05:59:18;;;;;;;4.32;2.22;;;20.80;39.20;;;;;;5059153;28;20334;-53
2023/02/05 06:01:44;;;;;;;2.83;2.13;;;20.80;39.20;;;;;;5062627;28;20029;-53
2023/02/05 06:04:10;;;;;;;3.65;1.75;;;20.80;39.30;;;;;;5059654;28;20036;-53
2023/02/05 06:06:36;;;;;;;3.17;2.28;;;20.80;39.30;;;;;;5063122;28;20090;-52
2023/02/05 06:09:02;;;;;;;3.10;2.00;;;20.80;39.20;;;;;;5060458;28;20032;-53
2023/02/05 06:11:28;;;;;;;2.70;1.73;;;20.80;39.20;;;;;;5043756;28;20029;-51
2023/02/05 06:13:54;;;;;;;3.65;1.80;;;20.80;39.20;;;;;;5058977;28;20044;-53
2023/02/05 06:16:20;;;;;;;2.60;1.58;;;20.80;39.20;;;;;;5063050;28;20063;-48
2023/02/05 06:18:45;;;;;;;2.83;1.40;;;20.80;39.20;;;;;;5058715;28;20025;-53
2023/02/05 06:21:11;;;;;;;2.30;1.40;;;20.80;39.20;;;;;;5061195;28;20483;-52
2023/02/05 06:23:37;;;;;;;1.80;1.42;;;20.80;39.20;;;;;;5061422;28;20094;-49
2023/02/05 06:26:03;;;;;;;2.45;1.20;;;20.80;39.20;;;;;;5059930;28;20444;-52
2023/02/05 06:28:29;;;;;;;2.42;1.17;;;20.70;39.10;;;;;;5061034;28;20111;-48
2023/02/05 06:30:55;;;;;;;1.33;0.90;;;20.80;39.20;;;;;;5059045;28;20025;-48
2023/02/05 06:33:20;;;;;;;1.48;1.10;;;20.80;39.20;;;;;;5042924;28;20408;-50
2023/02/05 06:35:46;;;;;;;2.10;0.90;;;20.70;39.10;;;;;;5065117;28;20036;-49
2023/02/05 06:38:12;;;;;;;1.35;0.80;;;20.70;39.10;;;;;;5064352;28;20036;-52
2023/02/05 06:40:38;;;;;;;1.30;0.80;;;20.70;39.00;;;;;;5058650;28;20037;-52
2023/02/05 06:43:04;;;;;;;1.27;0.80;;;20.70;38.90;;;;;;5062850;28;20065;-49
2023/02/05 06:45:30;;;;;;;1.77;0.90;;;20.70;38.80;;;;;;5058627;28;20036;-53
2023/02/05 06:47:56;;;;;;;1.73;0.70;;;20.70;38.80;;;;;;5060451;28;20113;-48
2023/02/05 06:50:23;;;;;;;1.77;0.77;;;20.70;38.70;;;;;;5062632;28;20063;-51
2023/02/05 06:52:50;;;;;;;1.38;0.73;;;20.70;38.60;;;;;;5061172;28;20017;-49
2023/02/05 06:55:16;;;;;;;1.80;0.60;;;20.70;38.50;;;;;;5061168;28;20024;-50
2023/02/05 06:57:42;;;;;;;2.13;0.60;;;20.70;38.50;;;;;;5060255;28;20033;-51
2023/02/05 07:00:10;;;;;;;0.85;0.70;;;20.70;38.40;;;;;;5058266;28;20063;-48
2023/02/05 07:02:36;;;;;;;1.25;0.70;;;20.70;38.40;;;;;;5062374;28;20380;-48
2023/02/05 07:05:02;;;;;;;2.00;0.70;;;20.70;38.30;;;;;;5058588;28;20039;-51
2023/02/05 07:07:27;;;;;;;1.10;0.70;;;20.70;38.30;;;;;;5061104;28;20020;-54
2023/02/05 07:09:53;;;;;;;1.52;0.73;;;20.70;38.30;;;;;;5057631;28;20762;-53
2023/02/05 07:12:19;;;;;;;3.05;0.80;;;20.70;38.80;;;;;;5059187;28;20067;-52
2023/02/05 07:14:45;;;;;;;2.42;0.75;;;20.70;38.10;;;;;;5040339;28;20055;-50
2023/02/05 07:17:11;;;;;;;1.40;0.52;;;20.70;38.10;;;;;;5060628;28;20099;-52
2023/02/05 07:19:37;;;;;;;3.00;1.00;;;20.70;38.10;;;;;;5063929;28;20047;-52
2023/02/05 07:22:04;;;;;;;1.95;0.73;;;20.70;38.10;;;;;;5061778;28;20057;-51
2023/02/05 07:24:30;;;;;;;2.13;0.70;;;20.60;38.00;;;;;;5060664;28;20356;-49
2023/02/05 07:26:56;;;;;;;1.45;0.50;;;20.60;38.00;;;;;;5055014;28;20037;-50
2023/02/05 07:29:22;;;;;;;1.00;0.57;;;20.70;38.10;;;;;;5059450;28;20032;-53
2023/02/05 07:31:49;;;;;;;2.58;0.60;;;20.60;38.00;;;;;;5060942;28;20020;-51
2023/02/05 07:34:15;;;;;;;1.33;0.60;;;20.60;38.00;;;;;;5058706;28;20367;-49
2023/02/05 07:36:41;;;;;;;1.23;0.40;;;20.60;38.00;;;;;;5041605;28;20103;-53
2023/02/05 07:39:06;;;;;;;2.22;0.38;;;20.60;38.00;;;;;;5058441;28;20040;-50
2023/02/05 07:41:32;;;;;;;2.55;0.80;;;20.60;38.00;;;;;;5060534;28;20470;-50
2023/02/05 07:43:58;;;;;;;2.10;0.75;;;20.60;38.00;;;;;;5058147;28;20036;-52
2023/02/05 07:46:24;;;;;;;1.13;0.60;;;20.60;37.90;;;;;;5061666;28;20098;-51
2023/02/05 07:48:50;;;;;;;2.40;1.02;;;20.60;37.90;;;;;;5063302;28;20029;-52
2023/02/05 07:51:20;;;;;;;1.35;0.63;;;20.60;37.90;;;;;;5061622;28;20021;-52
2023/02/05 07:53:46;;;;;;;2.10;0.90;;;20.60;37.90;;;;;;5055586;28;20040;-53
2023/02/05 07:56:14;;;;;;;1.85;0.80;;;20.60;37.90;;;;;;5062905;28;20032;-47
2023/02/05 07:58:40;;;;;;;2.60;0.80;;;20.60;37.90;;;;;;5059198;28;20116;-49
2023/02/05 08:01:06;;;;;;;1.98;0.75;;;20.60;37.90;;;;;;5038127;28;20049;-50
2023/02/05 08:03:32;;;;;;;1.48;0.60;;;20.60;37.90;;;;;;5053008;28;20033;-52
2023/02/05 08:05:58;;;;;;;3.08;0.80;;;20.60;37.80;;;;;;5050909;28;20402;-51
2023/02/05 08:08:24;;;;;;;2.50;1.00;;;20.60;37.80;;;;;;5056845;28;20417;-52
2023/02/05 08:10:59;;;;;;;4.22;1.05;;;20.50;37.80;;;;;;5057948;28;20112;-48
2023/02/05 08:13:25;;;;;;;2.55;0.90;;;20.50;37.70;;;;;;5055201;28;20079;-55
2023/02/05 08:15:51;;;;;;;1.90;0.75;;;20.50;37.80;;;;;;5058564;28;20057;-53
2023/02/05 08:18:16;;;;;;;3.30;0.77;;;20.50;37.80;;;;;;5054260;28;20103;-52
2023/02/05 08:20:43;;;;;;;1.48;0.65;;;20.50;37.90;;;;;;5058148;28;20041;-52
2023/02/05 08:23:09;;;;;;;3.28;1.10;;;20.50;37.90;;;;;;5056979;28;20409;-51
2023/02/05 08:25:36;;;;;;;2.45;1.00;;;20.50;38.00;;;;;;5041931;28;20031;-49
2023/02/05 08:28:02;;;;;;;2.30;0.90;;;20.50;38.00;;;;;;5056275;28;20033;-51
2023/02/05 08:30:28;;;;;;;2.92;0.98;;;20.50;38.00;;;;;;5041799;28;20098;-50
2023/02/05 08:32:54;;;;;;;3.17;0.88;;;20.50;38.00;;;;;;5053839;28;20028;-50
2023/02/05 08:35:20;;;;;;;4.50;1.20;;;20.50;38.10;;;;;;5053233;28;20040;-51
2023/02/05 08:37:46;;;;;;;3.03;0.77;;;20.50;38.10;;;;;;5059857;28;20025;-53
2023/02/05 08:40:13;;;;;;;4.20;1.00;;;20.50;38.10;;;;;;5054091;28;20171;-53
2023/02/05 08:42:39;;;;;;;2.30;0.80;;;20.50;38.20;;;;;;5055355;28;20024;-53
2023/02/05 08:45:07;;;;;;;3.42;1.10;;;20.50;38.20;;;;;;5052728;28;20114;-48
2023/02/05 08:47:36;;;;;;;3.83;1.02;;;20.50;38.20;;;;;;5057403;28;20020;-50
2023/02/05 08:50:06;;;;;;;3.80;0.95;;;20.50;38.20;;;;;;5053936;28;20025;-50
2023/02/05 08:52:32;;;;;;;2.67;1.05;;;20.50;38.20;;;;;;5059948;28;20031;-51
2023/02/05 08:54:58;;;;;;;2.47;0.93;;;20.50;38.30;;;;;;5058246;28;20029;-49
2023/02/05 08:57:28;;;;;;;3.75;1.00;;;20.50;38.30;;;;;;5062815;28;20383;-54
2023/02/05 08:59:55;;;;;;;3.75;1.00;;;20.50;38.40;;;;;;5058503;28;20079;-53
2023/02/05 09:02:21;;;;;;;3.25;0.98;;;20.50;38.50;;;;;;5058538;28;20033;-53
2023/02/05 09:04:47;;;;;;;3.15;0.85;;;20.50;38.60;;;;;;5063275;28;20459;-53
2023/02/05 09:07:15;;;;;;;3.13;0.95;;;20.50;38.70;;;;;;5068137;28;20065;-52
2023/02/05 09:09:41;;;;;;;2.88;0.95;;;20.50;38.80;;;;;;5056775;28;20074;-54
2023/02/05 09:12:09;;;;;;;5.53;1.20;;;20.50;38.90;;;;;;5062047;28;20387;-53
2023/02/05 09:14:36;;;;;;;2.88;1.00;;;20.60;39.10;;;;;;5061482;28;20044;-51
2023/02/05 09:17:03;;;;;;;3.58;0.93;;;20.60;39.10;;;;;;5057243;28;20521;-52
2023/02/05 09:19:32;;;;;;;3.10;1.25;;;20.60;39.10;;;;;;5054208;28;20021;-53
2023/02/05 09:21:58;;;;;;;2.58;1.20;;;20.60;39.10;;;;;;5059178;28;20036;-49
2023/02/05 09:24:24;;;;;;;3.28;0.95;;;20.70;39.30;;;;;;5056942;28;20436;-53
2023/02/05 09:26:50;;;;;;;3.00;0.90;;;20.70;39.20;;;;;;5058988;28;20459;-53
2023/02/05 09:29:16;;;;;;;2.92;0.93;;;20.70;39.10;;;;;;5063298;28;20025;-53
2023/02/05 09:31:42;;;;;;;6.63;1.23;;;20.80;39.20;;;;;;5061423;28;20179;-50
2023/02/05 09:34:08;;;;;;;4.43;1.52;;;20.80;39.00;;;;;;5064546;28;20488;-53
2023/02/05 09:36:34;;;;;;;5.10;1.50;;;20.80;38.50;;;;;;5060391;28;20102;-53
2023/02/05 09:38:59;;;;;;;6.25;1.60;;;20.70;38.20;;;;;;5064888;28;20020;-54
2023/02/05 09:41:45;;;;;;;3.88;1.33;;;20.70;38.10;;;;;;5065967;28;20033;-51
2023/02/05 09:44:39;;;;;;;4.82;1.45;;;20.70;38.00;;;;;;5066400;28;20047;-53
2023/02/05 09:47:23;;;;;;;3.55;1.13;;;20.80;37.90;;;;;;5066905;28;20081;-50
2023/02/05 09:50:02;;;;;;;5.80;1.70;;;20.80;37.80;;;;;;5061973;28;20456;-52
2023/02/05 09:52:37;;;;;;;4.03;1.38;;;20.80;37.80;;;;;;5048492;28;20271;-48
2023/02/05 09:55:18;;;;;;;4.45;1.35;;;20.80;37.70;;;;;;5066616;28;20089;-49
2023/02/05 09:57:44;;;;;;;6.70;1.70;;;20.90;37.70;;;;;;5063542;28;20036;-49
2023/02/05 10:00:35;;;;;;;5.22;1.25;;;20.90;37.60;;;;;;5068290;28;20036;-50
2023/02/05 10:03:30;;;;;;;6.75;1.52;;;20.90;37.50;;;;;;5063529;28;20020;-49
2023/02/05 10:06:09;;;;;;;6.03;1.85;;;20.90;37.50;;;;;;5063329;28;20037;-52
2023/02/05 10:08:34;;;;;;;4.93;1.30;;;20.90;37.50;;;;;;5065602;28;20033;-53
2023/02/05 10:11:03;;;;;;;3.72;1.45;;;21.00;37.50;;;;;;5051419;28;20035;-54
2023/02/05 10:13:32;;;;;;;4.95;1.58;;;21.00;38.10;;;;;;5068468;28;20106;-52
2023/02/05 10:16:25;;;;;;;5.55;1.63;;;21.00;37.40;;;;;;5062469;28;20037;-52
2023/02/05 10:19:20;;;;;;;4.50;1.50;;;21.00;37.30;;;;;;5061029;28;20040;-53
2023/02/05 10:21:52;;;;;;;6.20;1.80;;;21.00;37.20;;;;;;5063865;28;20036;-55
2023/02/05 10:24:25;;;;;;;5.95;1.95;;;21.00;37.20;;;;;;5068336;28;20098;-51
2023/02/05 10:26:58;;;;;;;7.13;2.95;;;21.10;37.20;;;;;;5064938;28;20035;-51
2023/02/05 10:29:44;;;;;;;12.82;4.03;;;21.10;37.80;;;;;;5064329;28;20145;-54
2023/02/05 10:32:22;;;;;;;13.35;4.90;;;21.10;39.20;;;;;;5063321;28;20044;-53
2023/02/05 10:35:35;;;;;;;11.15;4.47;;;21.10;40.30;;;;;;5062676;28;20047;-53
2023/02/05 10:38:04;;;;;;;15.68;5.25;;;21.20;41.10;;;;;;5042333;28;20087;-56
2023/02/05 10:40:38;;;;;;;10.52;4.28;;;21.20;41.60;;;;;;5065360;28;20487;-54
2023/02/05 10:43:23;;;;;;;8.70;3.55;;;21.20;41.20;;;;;;5061865;28;20028;-55
2023/02/05 10:45:51;;;;;;;9.90;3.45;;;21.20;40.40;;;;;;5063115;28;20498;-49
2023/02/05 10:48:55;;;;;;;10.57;3.03;;;21.20;39.60;;;;;;5064816;28;20067;-51
2023/02/05 10:51:37;;;;;;;13.38;4.05;;;21.20;39.20;;;;;;5063525;28;20048;-59
2023/02/05 10:54:03;;;;;;;15.45;4.15;;;21.20;39.60;;;;;;5064385;28;20044;-55
2023/02/05 10:56:30;;;;;;;9.02;3.97;;;21.20;39.80;;;;;;5064914;28;20467;-55
2023/02/05 10:59:01;;;;;;;8.00;3.08;;;21.20;39.80;;;;;;5064743;28;20029;-53
2023/02/05 11:01:36;;;;;;;6.15;2.58;;;21.20;39.70;;;;;;5063842;28;20077;-54
2023/02/05 11:04:04;;;;;;;6.70;2.60;;;21.20;39.50;;;;;;5064442;28;20459;-54
2023/02/05 11:06:39;;;;;;;9.63;3.00;;;21.20;39.20;;;;;;5065476;28;20515;-54
2023/02/05 11:09:23;;;;;;;6.10;2.38;;;21.20;39.00;;;;;;5064147;28;20029;-53
2023/02/05 11:11:52;;;;;;;8.23;2.40;;;21.20;38.70;;;;;;5063804;28;20398;-55
2023/02/05 11:14:27;;;;;;;9.32;2.65;;;21.20;38.60;;;;;;5038711;28;20434;-52
2023/02/05 11:16:55;;;;;;;15.57;5.30;;;21.20;38.70;;;;;;5041564;28;20029;-55
2023/02/05 11:19:32;;;;;;;13.43;5.38;;;21.20;39.20;;;;;;5045437;28;20033;-54
2023/02/05 11:22:02;;;;;;;16.58;7.07;;;21.30;40.40;;;;;;5040656;28;20036;-57
2023/02/05 11:24:39;;;;;;;19.48;7.22;;;21.30;41.30;;;;;;5044936;28;20445;-56
2023/02/05 11:27:14;;;;;;;16.33;6.38;;;21.30;41.80;;;;;;5042915;28;20021;-53
2023/02/05 11:29:41;;;;;;;11.68;5.15;;;21.30;41.70;;;;;;5044046;28;20029;-57
2023/02/05 11:32:36;;;;;;;17.70;4.80;;;21.40;41.30;;;;;;5044587;28;20045;-52
2023/02/05 11:35:21;;;;;;;14.68;6.00;;;21.40;40.90;;;;;;5041304;28;20372;-52
2023/02/05 11:38:04;;;;;;;15.68;5.75;;;21.40;41.50;;;;;;5043716;28;20120;-56
2023/02/05 11:40:31;;;;;;;13.98;4.97;;;21.40;41.90;;;;;;5043801;28;20037;-56
2023/02/05 11:43:32;;;;;;;11.90;4.72;;;21.40;41.70;;;;;;5041171;28;20025;-56
2023/02/05 11:46:00;;;;;;;13.98;4.60;;;21.40;41.40;;;;;;5006270;28;20051;-55
2023/02/05 11:48:52;;;;;;;9.43;4.07;;;21.40;41.10;;;;;;5038488;28;20645;-53
2023/02/05 11:51:34;;;;;;;11.65;4.22;;;21.50;40.80;;;;;;5037753;28;20025;-56
2023/02/05 11:54:03;;;;;;;12.88;4.43;;;21.50;41.00;;;;;;5044847;28;20029;-50
2023/02/05 11:56:29;;;;;;;12.63;4.28;;;21.50;41.20;;;;;;5037795;28;20047;-54
2023/02/05 11:59:00;;;;;;;13.13;4.25;;;21.50;41.20;;;;;;5037893;28;20400;-53
2023/02/05 12:01:31;;;;;;;10.15;4.20;;;21.50;41.30;;;;;;5041795;28;20080;-56
2023/02/05 12:04:02;;;;;;;10.88;3.75;;;21.50;41.20;;;;;;5041467;28;20044;-54
2023/02/05 12:06:40;;;;;;;8.77;3.67;;;21.50;41.00;;;;;;5040312;28;20033;-54
2023/02/05 12:09:11;;;;;;;11.18;4.00;;;21.50;40.70;;;;;;5038475;28;20030;-54
2023/02/05 12:12:07;;;;;;;8.00;3.33;;;21.50;40.60;;;;;;5040215;28;20343;-58
2023/02/05 12:14:37;;;;;;;10.30;3.55;;;21.50;40.50;;;;;;5055998;28;20040;-53
2023/02/05 12:17:35;;;;;;;11.13;3.28;;;21.50;40.40;;;;;;5062289;28;20046;-56
2023/02/05 12:20:23;;;;;;;10.73;3.17;;;21.60;40.30;;;;;;5061558;28;20036;-56
2023/02/05 12:23:00;;;;;;;8.05;2.92;;;21.60;40.30;;;;;;5056321;28;20028;-51
2023/02/05 12:25:51;;;;;;;10.50;3.20;;;21.60;40.00;;;;;;5053348;28;20072;-59
2023/02/05 12:28:28;;;;;;;10.95;3.15;;;21.60;39.80;;;;;;5050408;28;20132;-60
2023/02/05 12:31:03;;;;;;;6.55;2.80;;;21.60;39.90;;;;;;5039703;28;20036;-59
2023/02/05 12:33:56;;;;;;;7.78;2.97;;;21.70;40.10;;;;;;5055347;28;20114;-59
2023/02/05 12:36:44;;;;;;;8.38;3.10;;;21.70;40.00;;;;;;5055575;28;20021;-57
2023/02/05 12:39:37;;;;;;;8.27;3.22;;;21.80;39.70;;;;;;5054878;28;20029;-58
2023/02/05 12:42:27;;;;;;;8.23;2.55;;;21.90;39.20;;;;;;5056026;28;20040;-54
2023/02/05 12:45:11;;;;;;;6.18;2.55;;;22.10;38.70;;;;;;5061084;28;20107;-52
2023/02/05 12:47:54;;;;;;;6.55;2.55;;;22.20;38.00;;;;;;5056797;28;20036;-54
2023/02/05 12:50:38;;;;;;;9.38;2.95;;;22.30;37.50;;;;;;5050039;28;20094;-54
2023/02/05 12:53:35;;;;;;;7.38;2.63;;;22.40;36.90;;;;;;5052956;28;20028;-50
2023/02/05 12:56:33;;;;;;;9.02;2.55;;;22.50;36.50;;;;;;5056908;28;20028;-52
2023/02/05 12:59:05;;;;;;;7.43;2.40;;;22.60;36.50;;;;;;5040003;28;20020;-60
2023/02/05 13:01:54;;;;;;;6.97;2.38;;;22.60;36.50;;;;;;5057994;28;20486;-55
2023/02/05 13:04:27;;;;;;;8.63;2.50;;;22.70;36.60;;;;;;5055338;28;20415;-57
2023/02/05 13:07:04;;;;;;;8.20;2.90;;;22.70;36.70;;;;;;5055319;28;20094;-51
2023/02/05 13:09:45;;;;;;;9.27;2.70;;;22.70;36.60;;;;;;5060695;28;20024;-51
2023/02/05 13:12:15;;;;;;;6.80;2.17;;;22.80;36.40;;;;;;5061730;28;20031;-52
2023/02/05 13:14:50;;;;;;;6.60;2.47;;;22.80;36.10;;;;;;5062171;28;20364;-49